Famagusta, Cyprus
Current Conditions -  °F | °C
As of 12:20 PM on Friday 24 Oct 2014 (Local Time) from LCEN Reporting Station
Scattered Clouds Scattered Clouds  
Wind Chill: 81°   Ceiling: Unl
Heat Index: 81°   Visibility: 6mi
Dew Point: 52°   Wind: 14mph
Humidity: 37%   Direction: 190°S
Pressure: 30"   Gusts: NA
Location:  35.33°N, 34.07°E
Report Text: LCEN 240920Z 19012KT 160V220 9999 FEW025CB SCT030 27/11 Q1016 NOSIG
Loading
Personal Weather Stations






























Interactive Weather Map
Tropical Storm Tracking
New forecast layout! Learn more

10-Day Weather Forecast

Advertisements
Track Severe Weather on mobile